sensor_id;sensor_type;location;lat;lon;timestamp;temperature;humidity
9215;DHT22;4642;51.364;6.788;2024-01-06T00:00:22;6.80;99.90
9215;DHT22;4642;51.364;6.788;2024-01-06T00:02:48;6.80;99.90
9215;DHT22;4642;51.364;6.788;2024-01-06T00:05:14;6.80;99.90
9215;DHT22;4642;51.364;6.788;2024-01-06T00:07:40;6.80;99.90
9215;DHT22;4642;51.364;6.788;2024-01-06T00:10:06;6.80;99.90
9215;DHT22;4642;51.364;6.788;2024-01-06T00:12:31;6.80;99.90
9215;DHT22;4642;51.364;6.788;2024-01-06T00:14:57;6.80;99.90
9215;DHT22;4642;51.364;6.788;2024-01-06T00:17:23;6.80;99.90
9215;DHT22;4642;51.364;6.788;2024-01-06T00:19:48;6.70;99.90
9215;DHT22;4642;51.364;6.788;2024-01-06T00:22:17;6.80;99.90
9215;DHT22;4642;51.364;6.788;2024-01-06T00:24:43;6.70;99.90
9215;DHT22;4642;51.364;6.788;2024-01-06T00:27:09;6.70;99.90
9215;DHT22;4642;51.364;6.788;2024-01-06T00:29:34;6.70;99.90
9215;DHT22;4642;51.364;6.788;2024-01-06T00:32:00;6.70;99.90
9215;DHT22;4642;51.364;6.788;2024-01-06T00:34:25;6.80;99.90
9215;DHT22;4642;51.364;6.788;2024-01-06T00:36:51;6.80;99.90
9215;DHT22;4642;51.364;6.788;2024-01-06T00:39:16;6.80;99.90
9215;DHT22;4642;51.364;6.788;2024-01-06T00:41:42;6.80;99.90
9215;DHT22;4642;51.364;6.788;2024-01-06T00:44:07;6.80;99.90
9215;DHT22;4642;51.364;6.788;2024-01-06T00:46:33;6.80;99.90
9215;DHT22;4642;51.364;6.788;2024-01-06T00:48:58;6.70;99.90
9215;DHT22;4642;51.364;6.788;2024-01-06T00:51:24;6.80;99.90
9215;DHT22;4642;51.364;6.788;2024-01-06T00:53:50;6.80;99.90
9215;DHT22;4642;51.364;6.788;2024-01-06T00:56:15;6.80;99.90
9215;DHT22;4642;51.364;6.788;2024-01-06T00:58:41;6.80;99.90
9215;DHT22;4642;51.364;6.788;2024-01-06T01:01:06;6.80;99.90
9215;DHT22;4642;51.364;6.788;2024-01-06T01:03:32;6.80;99.90
9215;DHT22;4642;51.364;6.788;2024-01-06T01:05:58;6.80;99.90
9215;DHT22;4642;51.364;6.788;2024-01-06T01:08:23;6.80;99.90
9215;DHT22;4642;51.364;6.788;2024-01-06T01:10:49;6.80;99.90
9215;DHT22;4642;51.364;6.788;2024-01-06T01:13:14;6.70;99.90
9215;DHT22;4642;51.364;6.788;2024-01-06T01:15:40;6.80;99.90
9215;DHT22;4642;51.364;6.788;2024-01-06T01:18:05;6.90;99.90
9215;DHT22;4642;51.364;6.788;2024-01-06T01:20:31;6.90;99.90
9215;DHT22;4642;51.364;6.788;2024-01-06T01:22:56;6.80;99.90
9215;DHT22;4642;51.364;6.788;2024-01-06T01:25:22;6.90;99.90
9215;DHT22;4642;51.364;6.788;2024-01-06T01:27:47;6.90;99.90
9215;DHT22;4642;51.364;6.788;2024-01-06T01:30:13;6.90;99.90
9215;DHT22;4642;51.364;6.788;2024-01-06T01:32:39;6.90;99.90
9215;DHT22;4642;51.364;6.788;2024-01-06T01:35:05;6.90;99.90
9215;DHT22;4642;51.364;6.788;2024-01-06T01:37:31;6.90;99.90
9215;DHT22;4642;51.364;6.788;2024-01-06T01:39:56;6.90;99.90
9215;DHT22;4642;51.364;6.788;2024-01-06T01:42:22;6.90;99.90
9215;DHT22;4642;51.364;6.788;2024-01-06T01:44:48;6.90;99.90
9215;DHT22;4642;51.364;6.788;2024-01-06T01:47:13;6.90;99.90
9215;DHT22;4642;51.364;6.788;2024-01-06T01:49:45;6.90;99.90
9215;DHT22;4642;51.364;6.788;2024-01-06T01:52:12;7.00;99.90
9215;DHT22;4642;51.364;6.788;2024-01-06T01:54:38;6.90;99.90
9215;DHT22;4642;51.364;6.788;2024-01-06T01:57:04;7.00;99.90
9215;DHT22;4642;51.364;6.788;2024-01-06T01:59:30;6.90;99.90
9215;DHT22;4642;51.364;6.788;2024-01-06T02:01:55;6.90;99.90
9215;DHT22;4642;51.364;6.788;2024-01-06T02:04:21;6.90;99.90
9215;DHT22;4642;51.364;6.788;2024-01-06T02:06:47;6.90;99.90
9215;DHT22;4642;51.364;6.788;2024-01-06T02:09:13;6.90;99.90
9215;DHT22;4642;51.364;6.788;2024-01-06T02:11:39;6.90;99.90
9215;DHT22;4642;51.364;6.788;2024-01-06T02:14:04;6.90;99.90
9215;DHT22;4642;51.364;6.788;2024-01-06T02:16:30;6.90;99.90
9215;DHT22;4642;51.364;6.788;2024-01-06T02:18:55;6.90;99.90
9215;DHT22;4642;51.364;6.788;2024-01-06T02:21:23;7.00;99.90
9215;DHT22;4642;51.364;6.788;2024-01-06T02:23:49;6.90;99.90
9215;DHT22;4642;51.364;6.788;2024-01-06T02:26:15;6.90;99.90
9215;DHT22;4642;51.364;6.788;2024-01-06T02:28:41;6.90;99.90
9215;DHT22;4642;51.364;6.788;2024-01-06T02:31:07;6.90;99.90
9215;DHT22;4642;51.364;6.788;2024-01-06T02:33:32;6.90;99.90
9215;DHT22;4642;51.364;6.788;2024-01-06T02:35:58;6.90;99.90
9215;DHT22;4642;51.364;6.788;2024-01-06T02:38:23;6.90;99.90
9215;DHT22;4642;51.364;6.788;2024-01-06T02:40:49;6.90;99.90
9215;DHT22;4642;51.364;6.788;2024-01-06T02:43:14;7.00;99.90
9215;DHT22;4642;51.364;6.788;2024-01-06T02:45:40;6.80;99.90
9215;DHT22;4642;51.364;6.788;2024-01-06T02:48:05;6.80;99.90
9215;DHT22;4642;51.364;6.788;2024-01-06T02:50:31;6.90;99.90
9215;DHT22;4642;51.364;6.788;2024-01-06T02:52:56;6.90;99.90
9215;DHT22;4642;51.364;6.788;2024-01-06T02:55:22;6.80;99.90
9215;DHT22;4642;51.364;6.788;2024-01-06T02:57:47;6.90;99.90
9215;DHT22;4642;51.364;6.788;2024-01-06T03:00:13;6.80;99.90
9215;DHT22;4642;51.364;6.788;2024-01-06T03:02:39;6.80;99.90
9215;DHT22;4642;51.364;6.788;2024-01-06T03:05:07;6.80;99.90
9215;DHT22;4642;51.364;6.788;2024-01-06T03:07:34;6.80;99.90
9215;DHT22;4642;51.364;6.788;2024-01-06T03:09:59;6.80;99.90
9215;DHT22;4642;51.364;6.788;2024-01-06T03:12:25;6.80;99.90
9215;DHT22;4642;51.364;6.788;2024-01-06T03:14:50;6.80;99.90
9215;DHT22;4642;51.364;6.788;2024-01-06T03:17:17;6.80;99.90
9215;DHT22;4642;51.364;6.788;2024-01-06T03:19:43;6.80;99.90
9215;DHT22;4642;51.364;6.788;2024-01-06T03:22:08;6.70;99.90
9215;DHT22;4642;51.364;6.788;2024-01-06T03:24:34;6.70;99.90
9215;DHT22;4642;51.364;6.788;2024-01-06T03:26:59;6.60;99.90
9215;DHT22;4642;51.364;6.788;2024-01-06T03:29:25;6.50;99.90
9215;DHT22;4642;51.364;6.788;2024-01-06T03:31:50;6.40;99.90
9215;DHT22;4642;51.364;6.788;2024-01-06T03:34:16;6.40;99.90
9215;DHT22;4642;51.364;6.788;2024-01-06T03:36:42;6.30;99.90
9215;DHT22;4642;51.364;6.788;2024-01-06T03:39:07;6.30;99.90
9215;DHT22;4642;51.364;6.788;2024-01-06T03:41:33;6.20;99.90
9215;DHT22;4642;51.364;6.788;2024-01-06T03:43:59;6.20;99.90
9215;DHT22;4642;51.364;6.788;2024-01-06T03:46:24;6.20;99.90
9215;DHT22;4642;51.364;6.788;2024-01-06T03:48:50;6.20;99.90
9215;DHT22;4642;51.364;6.788;2024-01-06T03:51:16;6.20;99.90
9215;DHT22;4642;51.364;6.788;2024-01-06T03:53:41;6.10;99.90
9215;DHT22;4642;51.364;6.788;2024-01-06T03:56:07;6.40;99.90
9215;DHT22;4642;51.364;6.788;2024-01-06T03:58:33;6.10;99.90
9215;DHT22;4642;51.364;6.788;2024-01-06T04:00:58;6.10;99.90
9215;DHT22;4642;51.364;6.788;2024-01-06T04:03:24;6.10;99.90
9215;DHT22;4642;51.364;6.788;2024-01-06T04:05:49;6.10;99.90
9215;DHT22;4642;51.364;6.788;2024-01-06T04:08:15;6.10;99.90
9215;DHT22;4642;51.364;6.788;2024-01-06T04:10:40;6.00;99.90
9215;DHT22;4642;51.364;6.788;2024-01-06T04:13:07;6.10;99.90
9215;DHT22;4642;51.364;6.788;2024-01-06T04:15:32;6.00;99.90
9215;DHT22;4642;51.364;6.788;2024-01-06T04:18:01;6.00;99.90
9215;DHT22;4642;51.364;6.788;2024-01-06T04:20:27;6.00;99.90
9215;DHT22;4642;51.364;6.788;2024-01-06T04:22:53;6.00;99.90
9215;DHT22;4642;51.364;6.788;2024-01-06T04:25:18;6.00;99.90
9215;DHT22;4642;51.364;6.788;2024-01-06T04:27:44;6.00;99.90
9215;DHT22;4642;51.364;6.788;2024-01-06T04:30:12;5.90;99.90
9215;DHT22;4642;51.364;6.788;2024-01-06T04:32:37;5.90;99.90
9215;DHT22;4642;51.364;6.788;2024-01-06T04:35:03;6.00;99.90
9215;DHT22;4642;51.364;6.788;2024-01-06T04:37:29;6.00;99.90
9215;DHT22;4642;51.364;6.788;2024-01-06T04:39:55;6.00;99.90
9215;DHT22;4642;51.364;6.788;2024-01-06T04:42:21;5.90;99.90
9215;DHT22;4642;51.364;6.788;2024-01-06T04:44:48;5.90;99.90
9215;DHT22;4642;51.364;6.788;2024-01-06T04:47:13;5.90;99.90
9215;DHT22;4642;51.364;6.788;2024-01-06T04:49:39;5.90;99.90
9215;DHT22;4642;51.364;6.788;2024-01-06T04:52:04;5.90;99.90
9215;DHT22;4642;51.364;6.788;2024-01-06T04:54:30;5.90;99.90
9215;DHT22;4642;51.364;6.788;2024-01-06T04:56:55;5.80;99.90
9215;DHT22;4642;51.364;6.788;2024-01-06T04:59:21;5.80;99.90
9215;DHT22;4642;51.364;6.788;2024-01-06T05:01:47;5.80;99.90
9215;DHT22;4642;51.364;6.788;2024-01-06T05:04:12;5.80;99.90
9215;DHT22;4642;51.364;6.788;2024-01-06T05:06:38;5.80;99.90
9215;DHT22;4642;51.364;6.788;2024-01-06T05:09:03;5.70;99.90
9215;DHT22;4642;51.364;6.788;2024-01-06T05:11:29;5.70;99.90
9215;DHT22;4642;51.364;6.788;2024-01-06T05:13:54;5.70;99.90
9215;DHT22;4642;51.364;6.788;2024-01-06T05:16:20;5.70;99.90
9215;DHT22;4642;51.364;6.788;2024-01-06T05:18:46;5.70;99.90
9215;DHT22;4642;51.364;6.788;2024-01-06T05:21:11;5.70;99.90
9215;DHT22;4642;51.364;6.788;2024-01-06T05:23:37;5.70;99.90
9215;DHT22;4642;51.364;6.788;2024-01-06T05:26:02;5.60;99.90
9215;DHT22;4642;51.364;6.788;2024-01-06T05:28:28;5.70;99.90
9215;DHT22;4642;51.364;6.788;2024-01-06T05:30:53;5.60;99.90
9215;DHT22;4642;51.364;6.788;2024-01-06T05:33:19;5.70;99.90
9215;DHT22;4642;51.364;6.788;2024-01-06T05:35:44;5.70;99.90
9215;DHT22;4642;51.364;6.788;2024-01-06T05:38:10;5.70;99.90
9215;DHT22;4642;51.364;6.788;2024-01-06T05:40:35;5.70;99.90
9215;DHT22;4642;51.364;6.788;2024-01-06T05:43:04;5.60;99.90
9215;DHT22;4642;51.364;6.788;2024-01-06T05:45:30;5.60;99.90
9215;DHT22;4642;51.364;6.788;2024-01-06T05:47:55;5.70;99.90
9215;DHT22;4642;51.364;6.788;2024-01-06T05:50:21;5.70;99.90
9215;DHT22;4642;51.364;6.788;2024-01-06T05:52:46;5.60;99.90
9215;DHT22;4642;51.364;6.788;2024-01-06T05:55:13;5.70;99.90
9215;DHT22;4642;51.364;6.788;2024-01-06T05:57:39;5.60;99.90
9215;DHT22;4642;51.364;6.788;2024-01-06T06:00:09;5.60;99.90
9215;DHT22;4642;51.364;6.788;2024-01-06T06:02:36;5.60;99.90
9215;DHT22;4642;51.364;6.788;2024-01-06T06:05:02;5.60;99.90
9215;DHT22;4642;51.364;6.788;2024-01-06T06:07:28;5.60;99.90
9215;DHT22;4642;51.364;6.788;2024-01-06T06:09:53;5.60;99.90
9215;DHT22;4642;51.364;6.788;2024-01-06T06:12:19;5.60;99.90
9215;DHT22;4642;51.364;6.788;2024-01-06T06:14:44;5.50;99.90
9215;DHT22;4642;51.364;6.788;2024-01-06T06:17:10;5.60;99.90
9215;DHT22;4642;51.364;6.788;2024-01-06T06:19:36;5.60;99.90
9215;DHT22;4642;51.364;6.788;2024-01-06T06:22:01;5.50;99.90
9215;DHT22;4642;51.364;6.788;2024-01-06T06:24:27;5.50;99.90
9215;DHT22;4642;51.364;6.788;2024-01-06T06:26:52;5.50;99.90
9215;DHT22;4642;51.364;6.788;2024-01-06T06:29:18;5.50;99.90
9215;DHT22;4642;51.364;6.788;2024-01-06T06:31:43;5.50;99.90
9215;DHT22;4642;51.364;6.788;2024-01-06T06:34:10;5.50;99.90
9215;DHT22;4642;51.364;6.788;2024-01-06T06:36:36;5.50;99.90
9215;DHT22;4642;51.364;6.788;2024-01-06T06:39:02;5.50;99.90
9215;DHT22;4642;51.364;6.788;2024-01-06T06:41:29;5.50;99.90
9215;DHT22;4642;51.364;6.788;2024-01-06T06:43:55;5.40;99.90
9215;DHT22;4642;51.364;6.788;2024-01-06T06:46:21;5.40;99.90
9215;DHT22;4642;51.364;6.788;2024-01-06T06:48:46;5.40;99.90
9215;DHT22;4642;51.364;6.788;2024-01-06T06:51:12;5.40;99.90
9215;DHT22;4642;51.364;6.788;2024-01-06T06:53:37;5.40;99.90
9215;DHT22;4642;51.364;6.788;2024-01-06T06:56:03;5.40;99.90
9215;DHT22;4642;51.364;6.788;2024-01-06T06:58:29;5.30;99.90
9215;DHT22;4642;51.364;6.788;2024-01-06T07:00:54;5.30;99.90
9215;DHT22;4642;51.364;6.788;2024-01-06T07:03:20;5.30;99.90
9215;DHT22;4642;51.364;6.788;2024-01-06T07:05:46;5.20;99.90
9215;DHT22;4642;51.364;6.788;2024-01-06T07:08:11;5.20;99.90
9215;DHT22;4642;51.364;6.788;2024-01-06T07:10:40;5.20;99.90
9215;DHT22;4642;51.364;6.788;2024-01-06T07:13:05;5.20;99.90
9215;DHT22;4642;51.364;6.788;2024-01-06T07:15:31;5.20;99.90
9215;DHT22;4642;51.364;6.788;2024-01-06T07:17:56;5.20;99.90
9215;DHT22;4642;51.364;6.788;2024-01-06T07:20:22;5.20;99.90
9215;DHT22;4642;51.364;6.788;2024-01-06T07:22:47;5.20;99.90
9215;DHT22;4642;51.364;6.788;2024-01-06T07:25:13;5.20;99.90
9215;DHT22;4642;51.364;6.788;2024-01-06T07:27:38;5.20;99.90
9215;DHT22;4642;51.364;6.788;2024-01-06T07:30:04;5.20;99.90
9215;DHT22;4642;51.364;6.788;2024-01-06T07:32:30;5.20;99.90
9215;DHT22;4642;51.364;6.788;2024-01-06T07:34:56;5.20;99.90
9215;DHT22;4642;51.364;6.788;2024-01-06T07:37:21;5.20;99.90
9215;DHT22;4642;51.364;6.788;2024-01-06T07:39:47;5.20;99.90
9215;DHT22;4642;51.364;6.788;2024-01-06T07:42:13;5.20;99.90
9215;DHT22;4642;51.364;6.788;2024-01-06T07:44:38;5.20;99.90
9215;DHT22;4642;51.364;6.788;2024-01-06T07:47:04;5.20;99.90
9215;DHT22;4642;51.364;6.788;2024-01-06T07:49:30;5.20;99.90
9215;DHT22;4642;51.364;6.788;2024-01-06T07:51:57;5.10;99.90
9215;DHT22;4642;51.364;6.788;2024-01-06T07:54:22;5.10;99.90
9215;DHT22;4642;51.364;6.788;2024-01-06T07:56:48;5.10;99.90
9215;DHT22;4642;51.364;6.788;2024-01-06T07:59:13;5.10;99.90
9215;DHT22;4642;51.364;6.788;2024-01-06T08:01:39;5.10;99.90
9215;DHT22;4642;51.364;6.788;2024-01-06T08:04:05;5.10;99.90
9215;DHT22;4642;51.364;6.788;2024-01-06T08:06:30;5.10;99.90
9215;DHT22;4642;51.364;6.788;2024-01-06T08:08:56;5.00;99.90
9215;DHT22;4642;51.364;6.788;2024-01-06T08:11:21;5.00;99.90
9215;DHT22;4642;51.364;6.788;2024-01-06T08:13:47;5.10;99.90
9215;DHT22;4642;51.364;6.788;2024-01-06T08:16:13;5.00;99.90
9215;DHT22;4642;51.364;6.788;2024-01-06T08:18:38;5.00;99.90
9215;DHT22;4642;51.364;6.788;2024-01-06T08:21:04;5.00;99.90
9215;DHT22;4642;51.364;6.788;2024-01-06T08:23:29;5.00;99.90
9215;DHT22;4642;51.364;6.788;2024-01-06T08:25:55;4.90;99.90
9215;DHT22;4642;51.364;6.788;2024-01-06T08:28:21;5.00;99.90
9215;DHT22;4642;51.364;6.788;2024-01-06T08:30:48;5.00;99.90
9215;DHT22;4642;51.364;6.788;2024-01-06T08:33:14;5.00;99.90
9215;DHT22;4642;51.364;6.788;2024-01-06T08:35:40;4.90;99.90
9215;DHT22;4642;51.364;6.788;2024-01-06T08:38:08;5.00;99.90
9215;DHT22;4642;51.364;6.788;2024-01-06T08:40:35;4.90;99.90
9215;DHT22;4642;51.364;6.788;2024-01-06T08:43:01;5.00;99.90
9215;DHT22;4642;51.364;6.788;2024-01-06T08:45:26;4.90;99.90
9215;DHT22;4642;51.364;6.788;2024-01-06T08:47:52;5.00;99.90
9215;DHT22;4642;51.364;6.788;2024-01-06T08:50:18;5.00;99.90
9215;DHT22;4642;51.364;6.788;2024-01-06T08:52:43;4.90;99.90
9215;DHT22;4642;51.364;6.788;2024-01-06T08:55:09;4.90;99.90
9215;DHT22;4642;51.364;6.788;2024-01-06T08:57:34;4.90;99.90
9215;DHT22;4642;51.364;6.788;2024-01-06T09:00:00;4.90;99.90
9215;DHT22;4642;51.364;6.788;2024-01-06T09:02:25;4.90;99.90
9215;DHT22;4642;51.364;6.788;2024-01-06T09:04:51;4.90;99.90
9215;DHT22;4642;51.364;6.788;2024-01-06T09:07:16;4.90;99.90
9215;DHT22;4642;51.364;6.788;2024-01-06T09:09:43;4.90;99.90
9215;DHT22;4642;51.364;6.788;2024-01-06T09:12:09;4.80;99.90
9215;DHT22;4642;51.364;6.788;2024-01-06T09:14:34;4.90;99.90
9215;DHT22;4642;51.364;6.788;2024-01-06T09:17:00;4.80;99.90
9215;DHT22;4642;51.364;6.788;2024-01-06T09:19:25;4.90;99.90
9215;DHT22;4642;51.364;6.788;2024-01-06T09:21:53;4.90;99.90
9215;DHT22;4642;51.364;6.788;2024-01-06T09:24:20;4.90;99.90
9215;DHT22;4642;51.364;6.788;2024-01-06T09:26:45;4.90;99.90
9215;DHT22;4642;51.364;6.788;2024-01-06T09:29:11;4.90;99.90
9215;DHT22;4642;51.364;6.788;2024-01-06T09:31:37;4.90;99.90
9215;DHT22;4642;51.364;6.788;2024-01-06T09:34:02;4.80;99.90
9215;DHT22;4642;51.364;6.788;2024-01-06T09:36:29;4.80;99.90
9215;DHT22;4642;51.364;6.788;2024-01-06T09:38:55;4.80;99.90
9215;DHT22;4642;51.364;6.788;2024-01-06T09:41:20;4.80;99.90
9215;DHT22;4642;51.364;6.788;2024-01-06T09:43:47;4.70;99.90
9215;DHT22;4642;51.364;6.788;2024-01-06T09:46:26;4.70;99.90
9215;DHT22;4642;51.364;6.788;2024-01-06T09:48:53;4.70;99.90
9215;DHT22;4642;51.364;6.788;2024-01-06T09:51:20;4.60;99.90
9215;DHT22;4642;51.364;6.788;2024-01-06T09:56:16;4.70;99.90
9215;DHT22;4642;51.364;6.788;2024-01-06T09:58:43;4.70;99.90
9215;DHT22;4642;51.364;6.788;2024-01-06T10:01:11;4.60;99.90
9215;DHT22;4642;51.364;6.788;2024-01-06T10:03:38;4.60;99.90
9215;DHT22;4642;51.364;6.788;2024-01-06T10:06:04;4.60;99.90
9215;DHT22;4642;51.364;6.788;2024-01-06T10:08:30;4.60;99.90
9215;DHT22;4642;51.364;6.788;2024-01-06T10:10:58;4.50;99.90
9215;DHT22;4642;51.364;6.788;2024-01-06T10:13:25;4.50;99.90
9215;DHT22;4642;51.364;6.788;2024-01-06T10:15:50;4.50;99.90
9215;DHT22;4642;51.364;6.788;2024-01-06T10:18:16;4.50;99.90
9215;DHT22;4642;51.364;6.788;2024-01-06T10:20:44;4.50;99.90
9215;DHT22;4642;51.364;6.788;2024-01-06T10:23:10;4.50;99.90
9215;DHT22;4642;51.364;6.788;2024-01-06T10:25:36;4.50;99.90
9215;DHT22;4642;51.364;6.788;2024-01-06T10:28:02;4.50;99.90
9215;DHT22;4642;51.364;6.788;2024-01-06T10:30:28;4.50;99.90
9215;DHT22;4642;51.364;6.788;2024-01-06T10:32:54;4.40;99.90
9215;DHT22;4642;51.364;6.788;2024-01-06T10:35:19;4.50;99.90
9215;DHT22;4642;51.364;6.788;2024-01-06T10:37:45;4.40;99.90
9215;DHT22;4642;51.364;6.788;2024-01-06T10:40:16;4.50;99.90
9215;DHT22;4642;51.364;6.788;2024-01-06T10:42:42;4.40;99.90
9215;DHT22;4642;51.364;6.788;2024-01-06T10:45:10;4.40;99.90
9215;DHT22;4642;51.364;6.788;2024-01-06T10:47:42;4.40;99.90
9215;DHT22;4642;51.364;6.788;2024-01-06T10:50:08;4.40;99.90
9215;DHT22;4642;51.364;6.788;2024-01-06T10:52:34;4.40;99.90
9215;DHT22;4642;51.364;6.788;2024-01-06T10:55:01;4.30;99.90
9215;DHT22;4642;51.364;6.788;2024-01-06T10:57:28;4.30;99.90
9215;DHT22;4642;51.364;6.788;2024-01-06T10:59:58;4.30;99.90
9215;DHT22;4642;51.364;6.788;2024-01-06T11:02:24;4.30;99.90
9215;DHT22;4642;51.364;6.788;2024-01-06T11:04:51;4.20;99.90
9215;DHT22;4642;51.364;6.788;2024-01-06T11:07:22;4.20;99.90
9215;DHT22;4642;51.364;6.788;2024-01-06T11:10:00;4.20;99.90
9215;DHT22;4642;51.364;6.788;2024-01-06T11:12:28;4.20;99.90
9215;DHT22;4642;51.364;6.788;2024-01-06T11:14:53;4.20;99.90
9215;DHT22;4642;51.364;6.788;2024-01-06T11:17:51;4.20;99.90
9215;DHT22;4642;51.364;6.788;2024-01-06T11:20:19;4.20;99.90
9215;DHT22;4642;51.364;6.788;2024-01-06T11:22:45;4.30;99.90
9215;DHT22;4642;51.364;6.788;2024-01-06T11:25:16;4.40;99.90
9215;DHT22;4642;51.364;6.788;2024-01-06T11:27:43;4.30;99.90
9215;DHT22;4642;51.364;6.788;2024-01-06T11:30:23;4.30;99.90
9215;DHT22;4642;51.364;6.788;2024-01-06T11:32:51;4.20;99.90
9215;DHT22;4642;51.364;6.788;2024-01-06T11:35:18;4.20;99.90
9215;DHT22;4642;51.364;6.788;2024-01-06T11:40:22;4.10;99.90
9215;DHT22;4642;51.364;6.788;2024-01-06T11:43:06;4.10;99.90
9215;DHT22;4642;51.364;6.788;2024-01-06T11:45:33;4.10;99.90
9215;DHT22;4642;51.364;6.788;2024-01-06T11:48:00;4.00;99.90
9215;DHT22;4642;51.364;6.788;2024-01-06T11:50:28;3.90;99.90
9215;DHT22;4642;51.364;6.788;2024-01-06T11:52:54;3.90;99.90
9215;DHT22;4642;51.364;6.788;2024-01-06T11:55:20;4.00;99.90
9215;DHT22;4642;51.364;6.788;2024-01-06T11:57:46;4.00;99.90
9215;DHT22;4642;51.364;6.788;2024-01-06T12:00:13;4.10;99.90
9215;DHT22;4642;51.364;6.788;2024-01-06T12:02:40;4.10;99.90
9215;DHT22;4642;51.364;6.788;2024-01-06T12:05:05;4.00;99.90
9215;DHT22;4642;51.364;6.788;2024-01-06T12:07:31;4.00;99.90
9215;DHT22;4642;51.364;6.788;2024-01-06T12:10:03;4.00;99.90
9215;DHT22;4642;51.364;6.788;2024-01-06T12:12:29;4.00;99.90
9215;DHT22;4642;51.364;6.788;2024-01-06T12:14:55;4.00;99.90
9215;DHT22;4642;51.364;6.788;2024-01-06T12:17:21;3.90;99.90
9215;DHT22;4642;51.364;6.788;2024-01-06T12:19:47;3.90;99.90
9215;DHT22;4642;51.364;6.788;2024-01-06T12:22:14;3.90;99.90
9215;DHT22;4642;51.364;6.788;2024-01-06T12:24:40;3.90;99.90
9215;DHT22;4642;51.364;6.788;2024-01-06T12:27:09;3.90;99.90
9215;DHT22;4642;51.364;6.788;2024-01-06T12:29:38;3.80;99.90
9215;DHT22;4642;51.364;6.788;2024-01-06T12:32:05;3.80;99.90
9215;DHT22;4642;51.364;6.788;2024-01-06T12:34:31;3.80;99.90
9215;DHT22;4642;51.364;6.788;2024-01-06T12:36:57;3.90;99.90
9215;DHT22;4642;51.364;6.788;2024-01-06T12:39:27;3.80;99.90
9215;DHT22;4642;51.364;6.788;2024-01-06T12:41:54;3.80;99.90
9215;DHT22;4642;51.364;6.788;2024-01-06T12:44:20;3.80;99.90
9215;DHT22;4642;51.364;6.788;2024-01-06T12:46:45;3.80;99.90
9215;DHT22;4642;51.364;6.788;2024-01-06T12:49:11;3.80;99.90
9215;DHT22;4642;51.364;6.788;2024-01-06T12:51:37;3.80;99.90
9215;DHT22;4642;51.364;6.788;2024-01-06T12:54:03;3.80;99.90
9215;DHT22;4642;51.364;6.788;2024-01-06T12:56:29;3.80;99.90
9215;DHT22;4642;51.364;6.788;2024-01-06T12:58:54;3.80;99.90
9215;DHT22;4642;51.364;6.788;2024-01-06T13:01:20;3.80;99.90
9215;DHT22;4642;51.364;6.788;2024-01-06T13:03:46;3.80;99.90
9215;DHT22;4642;51.364;6.788;2024-01-06T13:06:11;3.80;99.90
9215;DHT22;4642;51.364;6.788;2024-01-06T13:08:37;3.70;99.90
9215;DHT22;4642;51.364;6.788;2024-01-06T13:11:03;3.70;99.90
9215;DHT22;4642;51.364;6.788;2024-01-06T13:13:28;3.70;99.90
9215;DHT22;4642;51.364;6.788;2024-01-06T13:15:56;3.70;99.90
9215;DHT22;4642;51.364;6.788;2024-01-06T13:18:22;3.70;99.90
9215;DHT22;4642;51.364;6.788;2024-01-06T13:20:47;3.70;99.90
9215;DHT22;4642;51.364;6.788;2024-01-06T13:23:13;3.60;99.90
9215;DHT22;4642;51.364;6.788;2024-01-06T13:25:38;3.60;99.90
9215;DHT22;4642;51.364;6.788;2024-01-06T13:28:06;3.60;99.90
9215;DHT22;4642;51.364;6.788;2024-01-06T13:30:32;3.60;99.90
9215;DHT22;4642;51.364;6.788;2024-01-06T13:32:58;3.50;99.90
9215;DHT22;4642;51.364;6.788;2024-01-06T13:35:24;3.60;99.90
9215;DHT22;4642;51.364;6.788;2024-01-06T13:37:51;3.60;99.90
9215;DHT22;4642;51.364;6.788;2024-01-06T13:40:17;3.50;99.90
9215;DHT22;4642;51.364;6.788;2024-01-06T13:42:48;3.50;99.90
9215;DHT22;4642;51.364;6.788;2024-01-06T13:45:14;3.60;99.90
9215;DHT22;4642;51.364;6.788;2024-01-06T13:47:41;3.50;99.90
9215;DHT22;4642;51.364;6.788;2024-01-06T13:50:10;3.50;99.90
9215;DHT22;4642;51.364;6.788;2024-01-06T13:52:36;3.50;99.90
9215;DHT22;4642;51.364;6.788;2024-01-06T13:55:02;3.50;99.90
9215;DHT22;4642;51.364;6.788;2024-01-06T13:57:27;3.50;99.90
9215;DHT22;4642;51.364;6.788;2024-01-06T13:59:53;3.50;99.90
9215;DHT22;4642;51.364;6.788;2024-01-06T14:02:19;3.40;99.90
9215;DHT22;4642;51.364;6.788;2024-01-06T14:04:44;3.50;99.90
9215;DHT22;4642;51.364;6.788;2024-01-06T14:07:10;3.50;99.90
9215;DHT22;4642;51.364;6.788;2024-01-06T14:09:36;3.40;99.90
9215;DHT22;4642;51.364;6.788;2024-01-06T14:12:02;3.40;99.90
9215;DHT22;4642;51.364;6.788;2024-01-06T14:14:31;3.50;99.90
9215;DHT22;4642;51.364;6.788;2024-01-06T14:16:57;3.50;99.90
9215;DHT22;4642;51.364;6.788;2024-01-06T14:19:24;3.60;99.90
9215;DHT22;4642;51.364;6.788;2024-01-06T14:21:49;3.60;99.90
9215;DHT22;4642;51.364;6.788;2024-01-06T14:24:16;3.60;99.90
9215;DHT22;4642;51.364;6.788;2024-01-06T14:26:45;3.60;99.90
9215;DHT22;4642;51.364;6.788;2024-01-06T14:29:11;3.60;99.90
9215;DHT22;4642;51.364;6.788;2024-01-06T14:31:41;3.60;99.90
9215;DHT22;4642;51.364;6.788;2024-01-06T14:34:07;3.50;99.90
9215;DHT22;4642;51.364;6.788;2024-01-06T14:36:32;3.50;99.90
9215;DHT22;4642;51.364;6.788;2024-01-06T14:38:58;3.50;99.90
9215;DHT22;4642;51.364;6.788;2024-01-06T14:41:23;3.50;99.90
9215;DHT22;4642;51.364;6.788;2024-01-06T14:43:49;3.50;99.90
9215;DHT22;4642;51.364;6.788;2024-01-06T14:46:15;3.50;99.90
9215;DHT22;4642;51.364;6.788;2024-01-06T14:48:40;3.40;99.90
9215;DHT22;4642;51.364;6.788;2024-01-06T14:51:06;3.30;99.90
9215;DHT22;4642;51.364;6.788;2024-01-06T14:53:31;3.30;99.90
9215;DHT22;4642;51.364;6.788;2024-01-06T14:55:57;3.40;99.90
9215;DHT22;4642;51.364;6.788;2024-01-06T14:58:23;3.30;99.90
9215;DHT22;4642;51.364;6.788;2024-01-06T15:00:48;3.30;99.90
9215;DHT22;4642;51.364;6.788;2024-01-06T15:03:14;3.30;99.90
9215;DHT22;4642;51.364;6.788;2024-01-06T15:05:39;3.30;99.90
9215;DHT22;4642;51.364;6.788;2024-01-06T15:08:05;3.20;99.90
9215;DHT22;4642;51.364;6.788;2024-01-06T15:10:31;3.30;99.90
9215;DHT22;4642;51.364;6.788;2024-01-06T15:12:56;3.30;99.90
9215;DHT22;4642;51.364;6.788;2024-01-06T15:15:22;3.30;99.90
9215;DHT22;4642;51.364;6.788;2024-01-06T15:17:47;3.30;99.90
9215;DHT22;4642;51.364;6.788;2024-01-06T15:20:13;3.30;99.90
9215;DHT22;4642;51.364;6.788;2024-01-06T15:22:38;3.30;99.90
9215;DHT22;4642;51.364;6.788;2024-01-06T15:25:04;3.20;99.90
9215;DHT22;4642;51.364;6.788;2024-01-06T15:27:31;3.20;99.90
9215;DHT22;4642;51.364;6.788;2024-01-06T15:29:58;3.10;99.90
9215;DHT22;4642;51.364;6.788;2024-01-06T15:32:27;3.20;99.90
9215;DHT22;4642;51.364;6.788;2024-01-06T15:34:52;3.20;99.90
9215;DHT22;4642;51.364;6.788;2024-01-06T15:37:18;3.20;99.90
9215;DHT22;4642;51.364;6.788;2024-01-06T15:39:44;3.10;99.90
9215;DHT22;4642;51.364;6.788;2024-01-06T15:42:09;3.10;99.90
9215;DHT22;4642;51.364;6.788;2024-01-06T15:44:35;3.10;99.90
9215;DHT22;4642;51.364;6.788;2024-01-06T15:47:00;3.10;99.90
9215;DHT22;4642;51.364;6.788;2024-01-06T15:49:26;3.10;99.90
9215;DHT22;4642;51.364;6.788;2024-01-06T15:51:52;3.10;99.90
9215;DHT22;4642;51.364;6.788;2024-01-06T15:54:18;3.10;99.90
9215;DHT22;4642;51.364;6.788;2024-01-06T15:56:43;3.10;99.90
9215;DHT22;4642;51.364;6.788;2024-01-06T15:59:09;3.10;99.90
9215;DHT22;4642;51.364;6.788;2024-01-06T16:01:35;3.10;99.90
9215;DHT22;4642;51.364;6.788;2024-01-06T16:04:01;3.10;99.90
9215;DHT22;4642;51.364;6.788;2024-01-06T16:06:26;3.10;99.90
9215;DHT22;4642;51.364;6.788;2024-01-06T16:08:52;3.20;99.90
9215;DHT22;4642;51.364;6.788;2024-01-06T16:11:17;3.20;99.90
9215;DHT22;4642;51.364;6.788;2024-01-06T16:13:43;3.20;99.90